Enter the Airport ICAO Code

Search by Airport or City

Current Weather

PANC | Ted Stevens Anchorage International Airport

Anchorage, Alaska, United States

Last Update 17 Minutes Ago

Completely Cloudy Sky

Temperature of 01 ºC Below Zero

Light Winds from East

Temperature

01 ºC Below Zero

Dew Point Temperature

06 ºC Below Zero

Relative Humidity

68.68 %

Wind Direction

East (110º, Without Significant Variations)

Wind Velocity

7 km/h (04 kt)

Gusts

None

Visibility

Greater than 10 Miles

Sea Level Pressure

29.48 inHg (Inches of Mercury)

Layers of Clouds

30% to 60% of Sky Covered from 2286 mts (7500 ft) Above Ground Level.

30% to 60% of Sky Covered from 3658 mts (12000 ft) Above Ground Level.

90% to 100% of Sky Covered from 4877 mts (16000 ft) Above Ground Level.

METAR PANC 160753Z 11004KT 10SM SCT075 SCT120 OVC160 M01/M06 A2948 RMK AO2 SLP984 T10111061

Weather Forecast

PANC | Ted Stevens Anchorage International Airport

Anchorage, Alaska, United States

Forecast valid for the next 28 Hours

From now on it is expected:

Mostly Cloudy Sky

Light to Moderate Winds from North

Maximum Temperature

No Data

Minimum Temperature

No Data

TAF PANC 160521Z 1606/1712 36008KT P6SM SCT070 BKN120